sensor_id;sensor_type;location;lat;lon;timestamp;pressure;altitude;pressure_sealevel;temperature;humidity
46412;BME280;32113;42.012;24.870;2022-07-06T00:01:20;98877.91;;;26.68;43.84
46412;BME280;32113;42.012;24.870;2022-07-06T00:03:46;98888.25;;;26.60;44.20
46412;BME280;32113;42.012;24.870;2022-07-06T00:06:11;98882.75;;;26.52;44.30
46412;BME280;32113;42.012;24.870;2022-07-06T00:08:38;98891.34;;;26.54;43.86
46412;BME280;32113;42.012;24.870;2022-07-06T00:11:03;98886.22;;;26.52;43.71
46412;BME280;32113;42.012;24.870;2022-07-06T00:13:29;98874.00;;;26.51;43.78
46412;BME280;32113;42.012;24.870;2022-07-06T00:15:54;98871.03;;;26.44;43.41
46412;BME280;32113;42.012;24.870;2022-07-06T00:18:20;98866.97;;;26.40;42.76
46412;BME280;32113;42.012;24.870;2022-07-06T00:20:45;98862.22;;;26.34;42.73
46412;BME280;32113;42.012;24.870;2022-07-06T00:23:11;98864.25;;;26.30;43.14
46412;BME280;32113;42.012;24.870;2022-07-06T00:25:36;98854.56;;;26.31;43.05
46412;BME280;32113;42.012;24.870;2022-07-06T00:28:02;98858.28;;;26.28;42.72
46412;BME280;32113;42.012;24.870;2022-07-06T00:30:28;98852.88;;;26.18;43.30
46412;BME280;32113;42.012;24.870;2022-07-06T00:32:53;98848.94;;;26.13;43.49
46412;BME280;32113;42.012;24.870;2022-07-06T00:35:19;98848.13;;;26.12;43.65
46412;BME280;32113;42.012;24.870;2022-07-06T00:37:44;98845.59;;;25.99;43.75
46412;BME280;32113;42.012;24.870;2022-07-06T00:40:10;98835.34;;;25.84;43.92
46412;BME280;32113;42.012;24.870;2022-07-06T00:42:42;98838.44;;;25.90;43.92
46412;BME280;32113;42.012;24.870;2022-07-06T00:45:09;98834.38;;;25.97;44.05
46412;BME280;32113;42.012;24.870;2022-07-06T00:47:35;98831.16;;;26.05;44.01
46412;BME280;32113;42.012;24.870;2022-07-06T00:50:01;98828.66;;;26.15;43.68
46412;BME280;32113;42.012;24.870;2022-07-06T00:53:09;98830.44;;;26.26;43.47
46412;BME280;32113;42.012;24.870;2022-07-06T00:55:37;98825.41;;;26.34;43.05
46412;BME280;32113;42.012;24.870;2022-07-06T00:58:07;98829.22;;;26.41;43.05
46412;BME280;32113;42.012;24.870;2022-07-06T01:00:33;98823.13;;;26.41;42.80
46412;BME280;32113;42.012;24.870;2022-07-06T01:02:59;98814.38;;;26.40;42.78
46412;BME280;32113;42.012;24.870;2022-07-06T01:05:25;98810.09;;;26.39;42.53
46412;BME280;32113;42.012;24.870;2022-07-06T01:07:52;98804.13;;;26.26;42.86
46412;BME280;32113;42.012;24.870;2022-07-06T01:10:18;98805.69;;;26.28;42.62
46412;BME280;32113;42.012;24.870;2022-07-06T01:12:45;98807.38;;;26.29;42.82
46412;BME280;32113;42.012;24.870;2022-07-06T01:15:17;98794.56;;;26.24;42.84
46412;BME280;32113;42.012;24.870;2022-07-06T01:17:43;98792.88;;;26.23;43.15
46412;BME280;32113;42.012;24.870;2022-07-06T01:22:36;98788.88;;;25.74;44.20
46412;BME280;32113;42.012;24.870;2022-07-06T01:25:02;98785.16;;;25.53;44.99
46412;BME280;32113;42.012;24.870;2022-07-06T01:27:27;98777.38;;;25.29;45.41
46412;BME280;32113;42.012;24.870;2022-07-06T01:29:53;98773.91;;;25.17;45.84
46412;BME280;32113;42.012;24.870;2022-07-06T01:32:18;98759.06;;;25.04;46.13
46412;BME280;32113;42.012;24.870;2022-07-06T01:34:43;98760.88;;;24.79;46.85
46412;BME280;32113;42.012;24.870;2022-07-06T01:37:09;98757.31;;;24.80;46.94
46412;BME280;32113;42.012;24.870;2022-07-06T01:39:34;98750.91;;;24.60;47.78
46412;BME280;32113;42.012;24.870;2022-07-06T01:42:00;98753.03;;;24.55;47.69
46412;BME280;32113;42.012;24.870;2022-07-06T01:44:25;98751.06;;;24.34;48.23
46412;BME280;32113;42.012;24.870;2022-07-06T01:46:51;98750.75;;;24.26;48.49
46412;BME280;32113;42.012;24.870;2022-07-06T01:49:16;98758.03;;;24.09;49.06
46412;BME280;32113;42.012;24.870;2022-07-06T01:51:41;98754.69;;;24.07;49.18
46412;BME280;32113;42.012;24.870;2022-07-06T01:54:07;98752.81;;;23.96;49.35
46412;BME280;32113;42.012;24.870;2022-07-06T01:56:32;98740.38;;;23.87;49.91
46412;BME280;32113;42.012;24.870;2022-07-06T01:58:58;98744.16;;;23.83;50.24
46412;BME280;32113;42.012;24.870;2022-07-06T02:01:23;98736.00;;;23.74;50.29
46412;BME280;32113;42.012;24.870;2022-07-06T02:03:49;98734.06;;;23.89;49.95
46412;BME280;32113;42.012;24.870;2022-07-06T02:06:14;98729.47;;;23.93;49.98
46412;BME280;32113;42.012;24.870;2022-07-06T02:08:41;98725.16;;;23.92;49.89
46412;BME280;32113;42.012;24.870;2022-07-06T02:11:08;98716.38;;;23.93;50.05
46412;BME280;32113;42.012;24.870;2022-07-06T02:13:34;98725.19;;;23.79;50.29
46412;BME280;32113;42.012;24.870;2022-07-06T02:16:00;98711.91;;;23.82;50.33
46412;BME280;32113;42.012;24.870;2022-07-06T02:18:25;98713.25;;;23.75;50.46
46412;BME280;32113;42.012;24.870;2022-07-06T02:20:51;98713.50;;;23.72;50.54
46412;BME280;32113;42.012;24.870;2022-07-06T02:23:16;98718.13;;;23.55;51.07
46412;BME280;32113;42.012;24.870;2022-07-06T02:25:42;98714.47;;;23.45;51.31
46412;BME280;32113;42.012;24.870;2022-07-06T02:28:07;98717.75;;;23.35;51.50
46412;BME280;32113;42.012;24.870;2022-07-06T02:30:33;98719.59;;;23.33;51.65
46412;BME280;32113;42.012;24.870;2022-07-06T02:32:58;98707.16;;;23.37;51.33
46412;BME280;32113;42.012;24.870;2022-07-06T02:35:24;98708.81;;;23.25;51.86
46412;BME280;32113;42.012;24.870;2022-07-06T02:37:49;98697.41;;;23.26;52.01
46412;BME280;32113;42.012;24.870;2022-07-06T02:40:15;98707.59;;;23.44;51.20
46412;BME280;32113;42.012;24.870;2022-07-06T02:42:40;98699.94;;;23.41;51.32
46412;BME280;32113;42.012;24.870;2022-07-06T02:45:06;98709.78;;;23.37;51.23
46412;BME280;32113;42.012;24.870;2022-07-06T02:47:32;98710.84;;;23.34;51.05
46412;BME280;32113;42.012;24.870;2022-07-06T02:49:57;98715.44;;;23.44;50.97
46412;BME280;32113;42.012;24.870;2022-07-06T02:52:23;98721.47;;;23.31;51.45
46412;BME280;32113;42.012;24.870;2022-07-06T02:54:48;98707.34;;;23.21;51.69
46412;BME280;32113;42.012;24.870;2022-07-06T02:57:14;98719.78;;;23.17;51.97
46412;BME280;32113;42.012;24.870;2022-07-06T02:59:40;98717.75;;;23.35;51.29
46412;BME280;32113;42.012;24.870;2022-07-06T03:02:05;98721.31;;;23.34;51.44
46412;BME280;32113;42.012;24.870;2022-07-06T03:04:31;98725.69;;;23.34;51.45
46412;BME280;32113;42.012;24.870;2022-07-06T03:06:57;98729.44;;;23.30;51.70
46412;BME280;32113;42.012;24.870;2022-07-06T03:09:22;98727.75;;;23.16;52.30
46412;BME280;32113;42.012;24.870;2022-07-06T03:11:48;98722.81;;;23.11;52.66
46412;BME280;32113;42.012;24.870;2022-07-06T03:14:13;98722.94;;;23.22;52.30
46412;BME280;32113;42.012;24.870;2022-07-06T03:16:38;98723.88;;;23.08;52.66
46412;BME280;32113;42.012;24.870;2022-07-06T03:19:04;98737.59;;;23.12;52.59
46412;BME280;32113;42.012;24.870;2022-07-06T03:21:29;98738.84;;;23.19;52.25
46412;BME280;32113;42.012;24.870;2022-07-06T03:23:55;98744.09;;;23.19;52.11
46412;BME280;32113;42.012;24.870;2022-07-06T03:26:20;98750.38;;;23.17;52.32
46412;BME280;32113;42.012;24.870;2022-07-06T03:28:46;98749.41;;;23.18;52.42
46412;BME280;32113;42.012;24.870;2022-07-06T03:31:11;98748.19;;;23.10;52.79
46412;BME280;32113;42.012;24.870;2022-07-06T03:33:36;98743.13;;;23.07;52.77
46412;BME280;32113;42.012;24.870;2022-07-06T03:36:02;98744.91;;;22.94;53.48
46412;BME280;32113;42.012;24.870;2022-07-06T03:38:28;98743.84;;;23.09;53.25
46412;BME280;32113;42.012;24.870;2022-07-06T03:40:53;98744.91;;;23.20;52.80
46412;BME280;32113;42.012;24.870;2022-07-06T03:43:19;98747.66;;;23.18;53.13
46412;BME280;32113;42.012;24.870;2022-07-06T03:45:44;98750.91;;;23.35;52.80
46412;BME280;32113;42.012;24.870;2022-07-06T03:48:09;98751.66;;;23.50;52.53
46412;BME280;32113;42.012;24.870;2022-07-06T03:50:35;98757.19;;;23.58;51.55
46412;BME280;32113;42.012;24.870;2022-07-06T03:53:01;98760.97;;;23.54;51.55
46412;BME280;32113;42.012;24.870;2022-07-06T03:55:26;98758.25;;;23.56;51.60
46412;BME280;32113;42.012;24.870;2022-07-06T03:57:52;98755.59;;;23.69;51.34
46412;BME280;32113;42.012;24.870;2022-07-06T04:00:17;98759.34;;;23.91;50.79
46412;BME280;32113;42.012;24.870;2022-07-06T04:02:43;98765.16;;;24.07;50.31
46412;BME280;32113;42.012;24.870;2022-07-06T04:05:08;98764.53;;;24.17;50.07
46412;BME280;32113;42.012;24.870;2022-07-06T04:07:34;98757.63;;;24.16;50.14
46412;BME280;32113;42.012;24.870;2022-07-06T04:09:59;98763.09;;;23.99;50.35
46412;BME280;32113;42.012;24.870;2022-07-06T04:12:25;98763.69;;;24.03;50.33
46412;BME280;32113;42.012;24.870;2022-07-06T04:14:50;98764.53;;;24.04;50.29
46412;BME280;32113;42.012;24.870;2022-07-06T04:17:15;98766.66;;;24.11;50.25
46412;BME280;32113;42.012;24.870;2022-07-06T04:19:59;98770.28;;;24.22;50.08
46412;BME280;32113;42.012;24.870;2022-07-06T04:22:25;98773.09;;;24.19;50.54
46412;BME280;32113;42.012;24.870;2022-07-06T04:24:50;98770.75;;;24.02;50.81
46412;BME280;32113;42.012;24.870;2022-07-06T04:27:16;98775.97;;;24.16;51.12
46412;BME280;32113;42.012;24.870;2022-07-06T04:29:41;98776.47;;;24.21;50.46
46412;BME280;32113;42.012;24.870;2022-07-06T04:32:07;98774.97;;;24.30;50.31
46412;BME280;32113;42.012;24.870;2022-07-06T04:34:32;98767.16;;;24.41;49.91
46412;BME280;32113;42.012;24.870;2022-07-06T04:36:58;98765.75;;;24.48;49.97
46412;BME280;32113;42.012;24.870;2022-07-06T04:39:23;98768.88;;;24.53;49.78
46412;BME280;32113;42.012;24.870;2022-07-06T04:41:48;98768.47;;;24.71;49.49
46412;BME280;32113;42.012;24.870;2022-07-06T04:44:14;98772.50;;;24.88;48.90
46412;BME280;32113;42.012;24.870;2022-07-06T04:46:39;98769.53;;;24.93;48.53
46412;BME280;32113;42.012;24.870;2022-07-06T04:49:05;98773.03;;;25.05;48.86
46412;BME280;32113;42.012;24.870;2022-07-06T04:51:30;98768.06;;;25.13;48.55
46412;BME280;32113;42.012;24.870;2022-07-06T04:53:56;98764.94;;;25.31;48.45
46412;BME280;32113;42.012;24.870;2022-07-06T04:56:21;98761.75;;;25.50;47.89
46412;BME280;32113;42.012;24.870;2022-07-06T04:58:46;98763.47;;;25.63;48.14
46412;BME280;32113;42.012;24.870;2022-07-06T05:01:12;98757.38;;;25.62;47.78
46412;BME280;32113;42.012;24.870;2022-07-06T05:03:37;98760.47;;;25.67;47.52
46412;BME280;32113;42.012;24.870;2022-07-06T05:06:06;98768.44;;;25.54;48.13
46412;BME280;32113;42.012;24.870;2022-07-06T05:08:32;98766.19;;;25.73;48.51
46412;BME280;32113;42.012;24.870;2022-07-06T05:10:58;98780.03;;;25.86;48.54
46412;BME280;32113;42.012;24.870;2022-07-06T05:13:23;98770.34;;;25.98;48.52
46412;BME280;32113;42.012;24.870;2022-07-06T05:15:49;98771.56;;;26.05;48.21
46412;BME280;32113;42.012;24.870;2022-07-06T05:18:14;98784.03;;;26.24;47.52
46412;BME280;32113;42.012;24.870;2022-07-06T05:20:40;98776.06;;;26.26;47.42
46412;BME280;32113;42.012;24.870;2022-07-06T05:23:05;98771.16;;;26.33;46.78
46412;BME280;32113;42.012;24.870;2022-07-06T05:25:31;98779.41;;;26.17;46.49
46412;BME280;32113;42.012;24.870;2022-07-06T05:27:58;98776.06;;;26.03;47.11
46412;BME280;32113;42.012;24.870;2022-07-06T05:30:24;98780.88;;;25.98;47.63
46412;BME280;32113;42.012;24.870;2022-07-06T05:32:50;98787.81;;;25.88;47.78
46412;BME280;32113;42.012;24.870;2022-07-06T05:35:15;98779.91;;;25.99;47.70
46412;BME280;32113;42.012;24.870;2022-07-06T05:37:41;98782.91;;;25.94;48.00
46412;BME280;32113;42.012;24.870;2022-07-06T05:40:07;98784.69;;;26.05;48.34
46412;BME280;32113;42.012;24.870;2022-07-06T05:42:33;98790.16;;;26.14;48.14
46412;BME280;32113;42.012;24.870;2022-07-06T05:44:58;98792.19;;;26.21;48.03
46412;BME280;32113;42.012;24.870;2022-07-06T05:47:23;98793.03;;;26.33;48.18
46412;BME280;32113;42.012;24.870;2022-07-06T05:50:07;98796.81;;;26.41;47.99
46412;BME280;32113;42.012;24.870;2022-07-06T05:52:40;98795.16;;;26.40;47.85
46412;BME280;32113;42.012;24.870;2022-07-06T05:55:07;98793.94;;;26.44;48.10
46412;BME280;32113;42.012;24.870;2022-07-06T05:57:32;98799.91;;;26.46;47.86
46412;BME280;32113;42.012;24.870;2022-07-06T05:59:58;98808.47;;;26.59;47.81
46412;BME280;32113;42.012;24.870;2022-07-06T06:02:23;98805.16;;;26.57;46.86
46412;BME280;32113;42.012;24.870;2022-07-06T06:04:49;98813.41;;;26.53;47.31
46412;BME280;32113;42.012;24.870;2022-07-06T06:07:14;98804.81;;;26.50;47.44
46412;BME280;32113;42.012;24.870;2022-07-06T06:09:40;98816.03;;;26.53;47.47
46412;BME280;32113;42.012;24.870;2022-07-06T06:12:05;98806.81;;;26.58;47.69
46412;BME280;32113;42.012;24.870;2022-07-06T06:14:31;98805.00;;;26.59;47.83
46412;BME280;32113;42.012;24.870;2022-07-06T06:16:57;98805.97;;;26.58;48.56
46412;BME280;32113;42.012;24.870;2022-07-06T06:19:23;98807.81;;;26.79;48.86
46412;BME280;32113;42.012;24.870;2022-07-06T06:21:48;98799.38;;;26.96;48.14
46412;BME280;32113;42.012;24.870;2022-07-06T06:24:13;98802.22;;;27.05;47.93
46412;BME280;32113;42.012;24.870;2022-07-06T06:26:39;98801.19;;;27.17;47.81
46412;BME280;32113;42.012;24.870;2022-07-06T06:29:04;98798.78;;;27.35;47.23
46412;BME280;32113;42.012;24.870;2022-07-06T06:31:30;98800.69;;;27.54;46.88
46412;BME280;32113;42.012;24.870;2022-07-06T06:33:55;98795.78;;;27.71;45.44
46412;BME280;32113;42.012;24.870;2022-07-06T06:36:21;98794.19;;;27.80;45.41
46412;BME280;32113;42.012;24.870;2022-07-06T06:38:46;98804.13;;;27.66;45.25
46412;BME280;32113;42.012;24.870;2022-07-06T06:41:13;98803.28;;;27.66;45.55
46412;BME280;32113;42.012;24.870;2022-07-06T06:43:39;98818.50;;;27.62;45.82
46412;BME280;32113;42.012;24.870;2022-07-06T06:46:04;98809.50;;;27.65;45.57
46412;BME280;32113;42.012;24.870;2022-07-06T06:48:30;98806.66;;;27.57;46.34
46412;BME280;32113;42.012;24.870;2022-07-06T06:50:56;98818.81;;;27.69;46.50
46412;BME280;32113;42.012;24.870;2022-07-06T06:53:22;98809.81;;;27.72;45.84
46412;BME280;32113;42.012;24.870;2022-07-06T06:55:48;98817.41;;;27.65;45.73
46412;BME280;32113;42.012;24.870;2022-07-06T06:58:13;98807.50;;;27.57;45.92
46412;BME280;32113;42.012;24.870;2022-07-06T07:00:39;98813.03;;;27.54;46.09
46412;BME280;32113;42.012;24.870;2022-07-06T07:03:04;98814.44;;;27.58;45.67
46412;BME280;32113;42.012;24.870;2022-07-06T07:05:29;98813.47;;;27.59;45.59
46412;BME280;32113;42.012;24.870;2022-07-06T07:07:55;98807.75;;;27.54;45.83
46412;BME280;32113;42.012;24.870;2022-07-06T07:10:24;98809.41;;;27.55;45.96
46412;BME280;32113;42.012;24.870;2022-07-06T07:12:49;98809.16;;;27.58;46.32
46412;BME280;32113;42.012;24.870;2022-07-06T07:15:15;98803.91;;;27.58;46.35
46412;BME280;32113;42.012;24.870;2022-07-06T07:17:41;98807.00;;;27.63;46.45
46412;BME280;32113;42.012;24.870;2022-07-06T07:20:07;98806.63;;;27.68;46.15
46412;BME280;32113;42.012;24.870;2022-07-06T07:22:32;98806.63;;;27.78;45.44
46412;BME280;32113;42.012;24.870;2022-07-06T07:24:58;98806.41;;;27.91;45.11
46412;BME280;32113;42.012;24.870;2022-07-06T07:27:26;98806.94;;;27.85;44.96
46412;BME280;32113;42.012;24.870;2022-07-06T07:29:52;98800.16;;;27.82;44.80
46412;BME280;32113;42.012;24.870;2022-07-06T07:32:18;98805.03;;;27.87;44.30
46412;BME280;32113;42.012;24.870;2022-07-06T07:34:45;98790.06;;;27.97;44.10
46412;BME280;32113;42.012;24.870;2022-07-06T07:37:10;98788.72;;;28.03;44.11
46412;BME280;32113;42.012;24.870;2022-07-06T07:39:36;98791.47;;;28.11;43.84
46412;BME280;32113;42.012;24.870;2022-07-06T07:42:01;98794.84;;;28.23;43.77
46412;BME280;32113;42.012;24.870;2022-07-06T07:44:27;98796.25;;;28.27;43.33
46412;BME280;32113;42.012;24.870;2022-07-06T07:46:53;98792.00;;;28.36;44.28
46412;BME280;32113;42.012;24.870;2022-07-06T07:49:19;98784.34;;;28.53;43.41
46412;BME280;32113;42.012;24.870;2022-07-06T07:51:46;98786.56;;;28.67;43.61
46412;BME280;32113;42.012;24.870;2022-07-06T07:54:12;98793.25;;;28.91;43.10
46412;BME280;32113;42.012;24.870;2022-07-06T07:56:38;98791.03;;;28.96;41.45
46412;BME280;32113;42.012;24.870;2022-07-06T07:59:06;98797.16;;;28.97;40.53
46412;BME280;32113;42.012;24.870;2022-07-06T08:01:32;98796.56;;;29.03;40.69
46412;BME280;32113;42.012;24.870;2022-07-06T08:03:58;98795.19;;;29.09;41.71
46412;BME280;32113;42.012;24.870;2022-07-06T08:06:23;98802.78;;;29.32;41.46
46412;BME280;32113;42.012;24.870;2022-07-06T08:08:49;98795.25;;;29.47;40.29
46412;BME280;32113;42.012;24.870;2022-07-06T08:11:14;98793.53;;;29.66;40.66
46412;BME280;32113;42.012;24.870;2022-07-06T08:13:39;98791.91;;;29.83;40.51
46412;BME280;32113;42.012;24.870;2022-07-06T08:16:05;98790.09;;;29.83;39.98
46412;BME280;32113;42.012;24.870;2022-07-06T08:18:30;98790.22;;;29.82;40.30
46412;BME280;32113;42.012;24.870;2022-07-06T08:20:56;98785.59;;;29.94;39.61
46412;BME280;32113;42.012;24.870;2022-07-06T08:23:22;98789.91;;;29.95;40.21
46412;BME280;32113;42.012;24.870;2022-07-06T08:25:48;98788.03;;;30.05;40.18
46412;BME280;32113;42.012;24.870;2022-07-06T08:28:13;98783.34;;;29.99;39.52
46412;BME280;32113;42.012;24.870;2022-07-06T08:30:39;98781.97;;;29.95;39.25
46412;BME280;32113;42.012;24.870;2022-07-06T08:33:04;98781.84;;;29.96;39.07
46412;BME280;32113;42.012;24.870;2022-07-06T08:35:30;98778.88;;;29.99;39.58
46412;BME280;32113;42.012;24.870;2022-07-06T08:37:56;98787.47;;;30.11;39.62
46412;BME280;32113;42.012;24.870;2022-07-06T08:40:22;98784.75;;;30.21;38.72
46412;BME280;32113;42.012;24.870;2022-07-06T08:42:53;98787.66;;;30.28;38.30
46412;BME280;32113;42.012;24.870;2022-07-06T08:45:19;98790.97;;;30.30;38.20
46412;BME280;32113;42.012;24.870;2022-07-06T08:47:47;98783.63;;;30.24;38.33
46412;BME280;32113;42.012;24.870;2022-07-06T08:50:14;98789.16;;;30.31;38.27
46412;BME280;32113;42.012;24.870;2022-07-06T08:52:41;98789.97;;;30.31;37.56
46412;BME280;32113;42.012;24.870;2022-07-06T08:55:10;98785.09;;;30.36;38.56
46412;BME280;32113;42.012;24.870;2022-07-06T08:57:36;98795.97;;;30.51;38.13
46412;BME280;32113;42.012;24.870;2022-07-06T09:00:06;98793.09;;;30.45;37.69
46412;BME280;32113;42.012;24.870;2022-07-06T09:02:32;98792.31;;;30.34;38.20
46412;BME280;32113;42.012;24.870;2022-07-06T09:05:00;98789.53;;;30.18;38.11
46412;BME280;32113;42.012;24.870;2022-07-06T09:07:27;98796.09;;;30.13;38.07
46412;BME280;32113;42.012;24.870;2022-07-06T09:09:54;98790.00;;;30.03;38.52
46412;BME280;32113;42.012;24.870;2022-07-06T09:12:20;98797.25;;;30.01;39.23
46412;BME280;32113;42.012;24.870;2022-07-06T09:14:46;98800.34;;;29.96;38.81
46412;BME280;32113;42.012;24.870;2022-07-06T09:17:12;98794.44;;;30.02;39.27
46412;BME280;32113;42.012;24.870;2022-07-06T09:19:38;98800.41;;;30.05;38.97
46412;BME280;32113;42.012;24.870;2022-07-06T09:22:04;98799.66;;;29.94;38.44
46412;BME280;32113;42.012;24.870;2022-07-06T09:24:30;98797.84;;;29.95;38.82
46412;BME280;32113;42.012;24.870;2022-07-06T09:26:57;98797.38;;;29.99;38.60
46412;BME280;32113;42.012;24.870;2022-07-06T09:29:30;98802.78;;;30.08;39.29
46412;BME280;32113;42.012;24.870;2022-07-06T09:32:04;98807.34;;;30.15;38.82
46412;BME280;32113;42.012;24.870;2022-07-06T09:34:44;98803.03;;;30.14;38.29
46412;BME280;32113;42.012;24.870;2022-07-06T09:37:10;98801.16;;;30.25;38.66
46412;BME280;32113;42.012;24.870;2022-07-06T09:39:36;98793.47;;;30.32;39.06
46412;BME280;32113;42.012;24.870;2022-07-06T09:42:03;98792.28;;;30.44;39.60
46412;BME280;32113;42.012;24.870;2022-07-06T09:44:39;98782.72;;;30.51;39.66
46412;BME280;32113;42.012;24.870;2022-07-06T09:47:09;98789.47;;;30.64;40.00
46412;BME280;32113;42.012;24.870;2022-07-06T09:49:36;98779.25;;;30.87;40.68
46412;BME280;32113;42.012;24.870;2022-07-06T09:52:04;98775.59;;;31.06;39.37
46412;BME280;32113;42.012;24.870;2022-07-06T09:54:33;98786.69;;;31.10;39.33
46412;BME280;32113;42.012;24.870;2022-07-06T09:56:59;98787.97;;;31.06;39.70
46412;BME280;32113;42.012;24.870;2022-07-06T09:59:26;98785.75;;;31.19;40.18
46412;BME280;32113;42.012;24.870;2022-07-06T10:02:02;98781.06;;;31.31;39.83
46412;BME280;32113;42.012;24.870;2022-07-06T10:04:29;98786.88;;;31.35;39.04
46412;BME280;32113;42.012;24.870;2022-07-06T10:06:56;98786.75;;;31.18;39.40
46412;BME280;32113;42.012;24.870;2022-07-06T10:09:23;98778.03;;;31.00;39.99
46412;BME280;32113;42.012;24.870;2022-07-06T10:11:54;98779.31;;;30.96;39.70
46412;BME280;32113;42.012;24.870;2022-07-06T10:14:21;98780.84;;;30.80;40.21
46412;BME280;32113;42.012;24.870;2022-07-06T10:16:48;98775.94;;;30.85;39.96
46412;BME280;32113;42.012;24.870;2022-07-06T10:19:15;98772.91;;;30.80;40.09
46412;BME280;32113;42.012;24.870;2022-07-06T10:21:41;98777.59;;;30.68;39.62
46412;BME280;32113;42.012;24.870;2022-07-06T10:24:08;98776.16;;;30.55;39.92
46412;BME280;32113;42.012;24.870;2022-07-06T10:26:35;98772.38;;;30.40;40.71
46412;BME280;32113;42.012;24.870;2022-07-06T10:29:02;98773.56;;;30.27;41.43
46412;BME280;32113;42.012;24.870;2022-07-06T10:31:29;98769.78;;;30.30;41.59
46412;BME280;32113;42.012;24.870;2022-07-06T10:33:57;98768.38;;;30.18;41.02
46412;BME280;32113;42.012;24.870;2022-07-06T10:36:23;98766.84;;;30.15;41.26
46412;BME280;32113;42.012;24.870;2022-07-06T10:38:50;98752.31;;;30.19;41.92
46412;BME280;32113;42.012;24.870;2022-07-06T10:41:16;98757.94;;;30.34;41.93
46412;BME280;32113;42.012;24.870;2022-07-06T10:43:44;98745.91;;;30.40;40.66
46412;BME280;32113;42.012;24.870;2022-07-06T10:46:15;98746.59;;;30.42;41.18
46412;BME280;32113;42.012;24.870;2022-07-06T10:48:43;98744.38;;;30.55;42.45
46412;BME280;32113;42.012;24.870;2022-07-06T10:51:11;98738.03;;;30.66;40.84
46412;BME280;32113;42.012;24.870;2022-07-06T10:53:38;98748.56;;;30.76;41.08
46412;BME280;32113;42.012;24.870;2022-07-06T10:56:09;98744.81;;;30.87;39.93
46412;BME280;32113;42.012;24.870;2022-07-06T11:01:05;98737.44;;;30.99;39.40
46412;BME280;32113;42.012;24.870;2022-07-06T11:06:21;98734.47;;;31.29;38.64
46412;BME280;32113;42.012;24.870;2022-07-06T11:14:11;98728.03;;;31.66;39.23
46412;BME280;32113;42.012;24.870;2022-07-06T11:16:59;98724.25;;;31.77;38.53
46412;BME280;32113;42.012;24.870;2022-07-06T11:19:28;98720.53;;;31.96;37.40
46412;BME280;32113;42.012;24.870;2022-07-06T11:22:08;98719.72;;;32.12;37.71
46412;BME280;32113;42.012;24.870;2022-07-06T11:24:37;98715.75;;;32.33;37.84
46412;BME280;32113;42.012;24.870;2022-07-06T11:27:04;98711.47;;;32.32;36.37
46412;BME280;32113;42.012;24.870;2022-07-06T11:29:32;98715.09;;;32.40;36.74
46412;BME280;32113;42.012;24.870;2022-07-06T11:32:00;98710.94;;;32.37;36.84
46412;BME280;32113;42.012;24.870;2022-07-06T11:34:34;98709.13;;;32.29;36.81
46412;BME280;32113;42.012;24.870;2022-07-06T11:37:02;98705.81;;;32.27;36.87
46412;BME280;32113;42.012;24.870;2022-07-06T11:39:46;98708.97;;;32.31;36.57
46412;BME280;32113;42.012;24.870;2022-07-06T11:42:14;98706.63;;;32.28;36.41
46412;BME280;32113;42.012;24.870;2022-07-06T11:44:41;98706.47;;;32.29;36.82
46412;BME280;32113;42.012;24.870;2022-07-06T11:47:08;98704.47;;;32.31;36.51
46412;BME280;32113;42.012;24.870;2022-07-06T11:49:36;98694.53;;;32.33;35.96
46412;BME280;32113;42.012;24.870;2022-07-06T11:52:06;98699.84;;;32.33;35.83
46412;BME280;32113;42.012;24.870;2022-07-06T11:54:31;98687.22;;;32.35;36.25
46412;BME280;32113;42.012;24.870;2022-07-06T11:56:58;98686.56;;;32.42;36.60
46412;BME280;32113;42.012;24.870;2022-07-06T11:59:28;98684.91;;;32.41;35.66
46412;BME280;32113;42.012;24.870;2022-07-06T12:04:31;98683.28;;;32.48;35.62
46412;BME280;32113;42.012;24.870;2022-07-06T12:07:01;98672.81;;;32.55;35.64
46412;BME280;32113;42.012;24.870;2022-07-06T12:09:32;98668.94;;;32.74;34.45
46412;BME280;32113;42.012;24.870;2022-07-06T12:11:58;98664.63;;;32.89;35.26
46412;BME280;32113;42.012;24.870;2022-07-06T12:14:27;98670.09;;;32.96;35.38
46412;BME280;32113;42.012;24.870;2022-07-06T12:16:53;98673.09;;;33.01;33.45
46412;BME280;32113;42.012;24.870;2022-07-06T12:19:21;98674.38;;;32.97;34.55
46412;BME280;32113;42.012;24.870;2022-07-06T12:21:49;98676.03;;;32.98;33.83
46412;BME280;32113;42.012;24.870;2022-07-06T12:24:22;98681.88;;;32.94;34.43
46412;BME280;32113;42.012;24.870;2022-07-06T12:26:49;98673.91;;;32.94;34.39
46412;BME280;32113;42.012;24.870;2022-07-06T12:29:15;98678.69;;;32.98;33.98
46412;BME280;32113;42.012;24.870;2022-07-06T12:31:52;98671.06;;;33.03;33.85
46412;BME280;32113;42.012;24.870;2022-07-06T12:36:50;98661.44;;;33.42;33.85
46412;BME280;32113;42.012;24.870;2022-07-06T12:39:20;98660.88;;;33.64;34.07
46412;BME280;32113;42.012;24.870;2022-07-06T12:41:47;98661.41;;;33.83;33.04
46412;BME280;32113;42.012;24.870;2022-07-06T12:44:13;98656.16;;;33.98;32.30
46412;BME280;32113;42.012;24.870;2022-07-06T12:46:41;98658.28;;;34.02;31.99
46412;BME280;32113;42.012;24.870;2022-07-06T12:49:25;98650.28;;;34.02;32.02
46412;BME280;32113;42.012;24.870;2022-07-06T12:54:17;98649.94;;;34.05;31.57
46412;BME280;32113;42.012;24.870;2022-07-06T12:57:07;98644.38;;;33.92;31.38
46412;BME280;32113;42.012;24.870;2022-07-06T12:59:38;98643.03;;;33.96;31.58
46412;BME280;32113;42.012;24.870;2022-07-06T13:02:05;98648.00;;;33.99;30.71
46412;BME280;32113;42.012;24.870;2022-07-06T13:04:32;98641.69;;;34.00;29.70
46412;BME280;32113;42.012;24.870;2022-07-06T13:07:00;98646.81;;;34.02;30.88
46412;BME280;32113;42.012;24.870;2022-07-06T13:09:26;98643.03;;;33.96;30.76